createdAt,value
2023-03-15T00:02:08.525Z,2.4
2023-03-15T00:07:52.570Z,2.4
2023-03-15T00:13:36.321Z,2.2
2023-03-15T00:19:20.039Z,2.3
2023-03-15T00:25:03.729Z,1.9
2023-03-15T00:30:47.973Z,1.5
2023-03-15T00:36:33.906Z,1.8
2023-03-15T00:42:17.800Z,1.7
2023-03-15T00:48:01.659Z,1.6
2023-03-15T00:53:46.450Z,1.4
2023-03-15T00:59:30.964Z,1.6
2023-03-15T01:05:15.131Z,1.4
2023-03-15T01:11:02.897Z,1.5
2023-03-15T01:16:46.859Z,1.6
2023-03-15T01:22:30.401Z,1.4
2023-03-15T01:28:14.103Z,1.2
2023-03-15T01:33:58.231Z,1.3
2023-03-15T01:39:41.964Z,1.6
2023-03-15T01:45:40.693Z,1.3
2023-03-15T01:51:25.784Z,1.3
2023-03-15T01:57:12.350Z,1.5
2023-03-15T02:02:59.590Z,1.2
2023-03-15T02:08:45.151Z,1.5
2023-03-15T02:14:29.756Z,1.4
2023-03-15T02:20:20.061Z,1.5
2023-03-15T02:26:09.966Z,1.6
2023-03-15T02:31:54.355Z,1.7
2023-03-15T02:37:38.167Z,1.6
2023-03-15T02:43:25.047Z,1.5
2023-03-15T02:49:09.304Z,1.6
2023-03-15T02:54:53.093Z,1.5
2023-03-15T03:00:36.769Z,1.8
2023-03-15T03:06:20.376Z,1.6
2023-03-15T03:12:04.182Z,1.8
2023-03-15T03:17:48.325Z,1.5
2023-03-15T03:23:32.841Z,1.9
2023-03-15T03:29:16.869Z,1.7
2023-03-15T03:35:00.614Z,1.5
2023-03-15T03:40:50.053Z,1.5
2023-03-15T03:46:33.875Z,1.4
2023-03-15T03:52:17.446Z,1.6
2023-03-15T03:58:01.147Z,1.6
2023-03-15T04:03:44.852Z,1.6
2023-03-15T04:09:28.498Z,1.4
2023-03-15T04:15:13.118Z,1.8
2023-03-15T04:20:56.959Z,1.9
2023-03-15T04:26:40.693Z,2.1
2023-03-15T04:32:24.644Z,2.1
2023-03-15T04:38:08.728Z,1.7
2023-03-15T04:43:52.417Z,1.9
2023-03-15T04:49:36.129Z,1.8
2023-03-15T04:55:19.935Z,1.8
2023-03-15T05:01:03.926Z,1.8
2023-03-15T05:06:47.804Z,1.9
2023-03-15T05:12:31.779Z,1.9
2023-03-15T05:18:15.502Z,2.3
2023-03-15T05:23:59.497Z,2.3
2023-03-15T05:29:43.266Z,2.4
2023-03-15T05:35:27.082Z,2.6
2023-03-15T05:41:10.993Z,2.5
2023-03-15T05:46:54.612Z,2.7
2023-03-15T05:52:38.605Z,2.7
2023-03-15T05:58:22.415Z,3
2023-03-15T06:04:06.274Z,3
2023-03-15T06:09:50.070Z,3.3
2023-03-15T06:15:33.797Z,3.3
2023-03-15T06:21:17.699Z,3.6
2023-03-15T06:27:01.786Z,3.6
2023-03-15T06:32:45.654Z,3.4
2023-03-15T06:38:29.454Z,3.8
2023-03-15T06:44:13.128Z,3.7
2023-03-15T06:49:58.614Z,3.7
2023-03-15T06:55:42.400Z,3.6
2023-03-15T07:01:25.984Z,3.9
2023-03-15T07:07:10.330Z,3.9
2023-03-15T07:12:54.155Z,3.8
2023-03-15T07:18:38.111Z,3.6
2023-03-15T07:24:21.848Z,3.5
2023-03-15T07:30:05.986Z,3.6
2023-03-15T07:35:49.959Z,3.4
2023-03-15T07:41:33.806Z,3.5
2023-03-15T07:47:17.539Z,3.4
2023-03-15T07:53:01.230Z,3.4
2023-03-15T07:58:44.975Z,3.3
2023-03-15T08:04:28.680Z,3.6
2023-03-15T08:10:13.135Z,3.1
2023-03-15T08:15:57.024Z,3.1
2023-03-15T08:21:40.944Z,3.1
2023-03-15T08:27:24.737Z,3.1
2023-03-15T08:33:08.570Z,2.9
2023-03-15T08:38:52.411Z,2.9
2023-03-15T08:44:38.060Z,2.7
2023-03-15T08:50:21.771Z,2.4
2023-03-15T08:56:05.514Z,2.7
2023-03-15T09:01:55.526Z,2.3
2023-03-15T09:07:40.303Z,2.3
2023-03-15T09:13:24.081Z,2
2023-03-15T09:19:07.845Z,2.1
2023-03-15T09:24:53.290Z,1.9
2023-03-15T09:30:37.137Z,1.7
2023-03-15T09:36:20.938Z,1.6
2023-03-15T09:42:07.989Z,1.8
2023-03-15T09:47:56.668Z,1.6
2023-03-15T09:53:43.839Z,1.4
2023-03-15T09:59:31.363Z,1.4
2023-03-15T10:05:18.567Z,1.4
2023-03-15T10:11:07.431Z,1.1
2023-03-15T10:16:52.029Z,1.1
2023-03-15T10:22:38.480Z,1.2
2023-03-15T10:28:25.761Z,1
2023-03-15T10:34:10.307Z,1
2023-03-15T10:39:56.502Z,1
2023-03-15T10:45:40.606Z,1.1
2023-03-15T10:51:26.696Z,1
2023-03-15T10:57:15.923Z,1
2023-03-15T11:03:07.299Z,1.1
2023-03-15T11:08:51.164Z,1
2023-03-15T11:14:39.515Z,0.8
2023-03-15T11:20:30.004Z,1.1
2023-03-15T11:26:32.429Z,0.9
2023-03-15T11:32:19.774Z,0.9
2023-03-15T11:38:16.018Z,0.9
2023-03-15T11:44:08.214Z,0.9
2023-03-15T11:49:53.065Z,0.8
2023-03-15T11:55:36.775Z,0.9
2023-03-15T12:01:25.942Z,0.8
2023-03-15T12:07:15.268Z,0.7
2023-03-15T12:13:07.049Z,0.9
2023-03-15T12:18:51.307Z,0.9
2023-03-15T12:24:37.799Z,0.8
2023-03-15T12:30:25.120Z,1
2023-03-15T12:36:10.925Z,0.8
2023-03-15T12:41:54.848Z,0.9
2023-03-15T12:47:54.058Z,1
2023-03-15T12:53:44.007Z,0.9
2023-03-15T12:59:33.881Z,1
2023-03-15T13:05:19.718Z,1
2023-03-15T13:11:08.524Z,0.9
2023-03-15T13:16:55.627Z,1
2023-03-15T13:22:55.857Z,1
2023-03-15T13:28:41.160Z,1.1
2023-03-15T13:34:25.734Z,1
2023-03-15T13:40:14.049Z,1
2023-03-15T13:45:57.939Z,1
2023-03-15T13:51:42.324Z,1.1
2023-03-15T13:57:26.252Z,1
2023-03-15T14:03:14.911Z,1.1
2023-03-15T14:09:02.263Z,1.1
2023-03-15T14:14:50.342Z,1.2
2023-03-15T14:20:37.693Z,1.1
2023-03-15T14:26:24.272Z,1.2
2023-03-15T14:32:10.310Z,1.2
2023-03-15T14:38:08.708Z,1.1
2023-03-15T14:43:52.759Z,1
2023-03-15T14:49:36.668Z,1.1
2023-03-15T14:55:25.537Z,1.4
2023-03-15T15:01:11.391Z,1.2
2023-03-15T15:06:56.636Z,1.2
2023-03-15T15:12:40.426Z,1.1
2023-03-15T15:18:24.385Z,1.3
2023-03-15T15:24:12.792Z,1
2023-03-15T15:29:56.516Z,1.1
2023-03-15T15:35:40.381Z,1.1
2023-03-15T15:41:25.631Z,1
2023-03-15T15:47:09.544Z,1.2
2023-03-15T15:52:54.071Z,1
2023-03-15T15:58:37.881Z,1.1
2023-03-15T16:04:27.816Z,1.2
2023-03-15T16:10:17.996Z,1.2
2023-03-15T16:16:01.878Z,1.2
2023-03-15T16:21:47.113Z,1.1
2023-03-15T16:27:31.501Z,1.1
2023-03-15T16:33:16.806Z,1.3
2023-03-15T16:39:01.784Z,1.2
2023-03-15T16:44:45.940Z,1.3
2023-03-15T16:50:29.792Z,1.2
2023-03-15T16:56:15.802Z,1.1
2023-03-15T17:01:59.675Z,1.1
2023-03-15T17:07:44.110Z,1.3
2023-03-15T17:13:30.430Z,1.2
2023-03-15T17:19:16.431Z,1.2
2023-03-15T17:24:59.903Z,1.4
2023-03-15T17:30:43.602Z,1.5
2023-03-15T17:36:32.300Z,1.7
2023-03-15T17:42:17.183Z,2.2
2023-03-15T17:48:01.006Z,2.3
2023-03-15T17:53:44.870Z,2
2023-03-15T17:59:28.774Z,2.1
2023-03-15T18:05:15.200Z,2.3
2023-03-15T18:10:59.155Z,2.2
2023-03-15T18:16:43.250Z,2.4
2023-03-15T18:22:27.041Z,2.4
2023-03-15T18:28:10.763Z,2.2
2023-03-15T18:33:55.300Z,2.3
2023-03-15T18:39:39.211Z,2.3
2023-03-15T18:45:24.126Z,2.6
2023-03-15T18:51:10.617Z,2.3
2023-03-15T18:56:54.321Z,2.1
2023-03-15T19:02:38.135Z,2.4
2023-03-15T19:08:21.687Z,2.3
2023-03-15T19:14:05.588Z,2.7
2023-03-15T19:19:49.259Z,2.1
2023-03-15T19:25:33.043Z,2.3
2023-03-15T19:31:17.069Z,2.5
2023-03-15T19:37:00.955Z,2.5
2023-03-15T19:42:45.792Z,2.6
2023-03-15T19:48:30.492Z,2.4
2023-03-15T19:54:13.920Z,2.5
2023-03-15T19:59:57.654Z,2.7
2023-03-15T20:05:43.130Z,2.7
2023-03-15T20:11:26.936Z,3
2023-03-15T20:17:11.703Z,3
2023-03-15T20:22:55.639Z,3.1
2023-03-15T20:28:39.791Z,3.1
2023-03-15T20:34:23.499Z,3.3
2023-03-15T20:40:08.003Z,3.3
2023-03-15T20:45:55.524Z,3.3
2023-03-15T20:51:39.254Z,3.3
2023-03-15T20:57:23.111Z,3.3
2023-03-15T21:03:06.913Z,3.2
2023-03-15T21:08:50.836Z,3.2
2023-03-15T21:14:34.685Z,3.2
2023-03-15T21:20:18.718Z,3.1
2023-03-15T21:26:03.541Z,3.5
2023-03-15T21:31:47.597Z,3.5
2023-03-15T21:37:31.358Z,3.2
2023-03-15T21:43:16.207Z,3.1
2023-03-15T21:49:00.061Z,3.2
2023-03-15T21:54:44.035Z,3
2023-03-15T22:00:28.616Z,3.4
2023-03-15T22:06:12.783Z,3.1
2023-03-15T22:11:56.527Z,3.1
2023-03-15T22:17:40.538Z,3.1
2023-03-15T22:23:24.349Z,3.1
2023-03-15T22:29:08.141Z,3
2023-03-15T22:34:51.843Z,3.1
2023-03-15T22:40:35.500Z,2.8
2023-03-15T22:46:19.272Z,3.2
2023-03-15T22:52:03.021Z,3
2023-03-15T22:57:46.815Z,3.1
2023-03-15T23:03:30.493Z,2.9
2023-03-15T23:09:14.285Z,2.9
2023-03-15T23:14:58.441Z,2.6
2023-03-15T23:20:42.437Z,2.8
2023-03-15T23:26:26.342Z,3
2023-03-15T23:32:10.428Z,2.8
2023-03-15T23:37:55.526Z,2.8
2023-03-15T23:43:39.556Z,2.6
2023-03-15T23:49:23.415Z,2.6
2023-03-15T23:55:07.585Z,2.4
